createdAt,value
2024-02-06T00:00:54.802Z,10.59
2024-02-06T00:03:45.201Z,10.61
2024-02-06T00:06:15.880Z,10.63
2024-02-06T00:08:46.678Z,10.65
2024-02-06T00:11:17.367Z,10.67
2024-02-06T00:13:48.005Z,10.67
2024-02-06T00:16:18.762Z,10.70
2024-02-06T00:18:49.480Z,10.71
2024-02-06T00:21:20.730Z,10.72
2024-02-06T00:23:51.399Z,10.72
2024-02-06T00:26:22.139Z,10.72
2024-02-06T00:28:52.925Z,10.71
2024-02-06T00:31:23.774Z,10.71
2024-02-06T00:33:55.111Z,10.71
2024-02-06T00:36:26.040Z,10.68
2024-02-06T00:38:56.754Z,10.64
2024-02-06T00:41:27.480Z,10.65
2024-02-06T00:43:58.222Z,10.67
2024-02-06T00:46:29.007Z,10.66
2024-02-06T00:48:59.794Z,10.64
2024-02-06T00:51:30.809Z,10.62
2024-02-06T00:54:01.339Z,10.59
2024-02-06T00:56:32.012Z,10.57
2024-02-06T00:59:03.070Z,10.58
2024-02-06T01:01:33.890Z,10.59
2024-02-06T01:04:04.757Z,10.58
2024-02-06T01:06:35.522Z,10.56
2024-02-06T01:09:06.365Z,10.53
2024-02-06T01:11:37.176Z,10.48
2024-02-06T01:14:07.926Z,10.43
2024-02-06T01:16:38.595Z,10.38
2024-02-06T01:19:09.380Z,10.34
2024-02-06T01:21:40.173Z,10.33
2024-02-06T01:24:10.900Z,10.31
2024-02-06T01:26:41.520Z,10.29
2024-02-06T01:29:12.413Z,10.28
2024-02-06T01:31:45.057Z,10.28
2024-02-06T01:34:17.372Z,10.28
2024-02-06T01:36:48.568Z,10.25
2024-02-06T01:39:19.506Z,10.24
2024-02-06T01:41:50.342Z,10.25
2024-02-06T01:44:23.608Z,10.25
2024-02-06T01:46:55.087Z,10.23
2024-02-06T01:49:26.131Z,10.22
2024-02-06T01:51:57.159Z,10.20
2024-02-06T01:54:28.042Z,10.18
2024-02-06T01:56:59.042Z,10.21
2024-02-06T01:59:30.000Z,10.20
2024-02-06T02:02:00.986Z,10.17
2024-02-06T02:04:32.164Z,10.15
2024-02-06T02:07:03.304Z,10.11
2024-02-06T02:09:34.193Z,10.08
2024-02-06T02:12:05.360Z,10.07
2024-02-06T02:14:36.254Z,10.05
2024-02-06T02:17:07.194Z,10.05
2024-02-06T02:19:38.226Z,10.07
2024-02-06T02:22:09.217Z,10.09
2024-02-06T02:24:40.193Z,10.10
2024-02-06T02:27:11.021Z,10.08
2024-02-06T02:29:42.637Z,10.06
2024-02-06T02:32:13.860Z,10.07
2024-02-06T02:34:50.032Z,10.03
2024-02-06T02:37:21.111Z,9.99
2024-02-06T02:39:51.932Z,9.96
2024-02-06T02:42:22.788Z,9.87
2024-02-06T02:44:53.759Z,9.81
2024-02-06T02:47:24.727Z,9.77
2024-02-06T02:49:55.610Z,9.75
2024-02-06T02:52:27.181Z,9.72
2024-02-06T02:54:58.591Z,9.69
2024-02-06T02:57:29.625Z,9.71
2024-02-06T03:00:00.930Z,9.71
2024-02-06T03:02:32.652Z,9.72
2024-02-06T03:05:04.375Z,9.67
2024-02-06T03:07:35.507Z,9.63
2024-02-06T03:10:07.076Z,9.61
2024-02-06T03:12:38.018Z,9.59
2024-02-06T03:15:09.560Z,9.56
2024-02-06T03:17:40.436Z,9.54
2024-02-06T03:20:12.409Z,9.54
2024-02-06T03:22:43.386Z,9.55
2024-02-06T03:25:14.529Z,9.54
2024-02-06T03:27:47.301Z,9.54
2024-02-06T03:30:19.061Z,9.55
2024-02-06T03:32:50.815Z,9.53
2024-02-06T03:35:21.823Z,9.52
2024-02-06T03:37:52.891Z,9.51
2024-02-06T03:40:23.999Z,9.51
2024-02-06T03:42:55.162Z,9.50
2024-02-06T03:45:26.192Z,9.50
2024-02-06T03:47:57.196Z,9.49
2024-02-06T03:50:28.425Z,9.51
2024-02-06T03:52:59.383Z,9.50
2024-02-06T03:55:30.370Z,9.50
2024-02-06T03:58:01.346Z,9.48
2024-02-06T04:00:32.378Z,9.49
2024-02-06T04:03:04.541Z,9.49
2024-02-06T04:05:35.518Z,9.46
2024-02-06T04:08:07.129Z,9.43
2024-02-06T04:10:38.674Z,9.40
2024-02-06T04:13:09.829Z,9.38
2024-02-06T04:15:40.904Z,9.37
2024-02-06T04:18:11.947Z,9.34
2024-02-06T04:20:42.967Z,9.31
2024-02-06T04:23:13.796Z,9.28
2024-02-06T04:25:44.756Z,9.25
2024-02-06T04:28:15.709Z,9.22
2024-02-06T04:30:46.716Z,9.19
2024-02-06T04:33:17.744Z,9.18
2024-02-06T04:35:48.716Z,9.18
2024-02-06T04:38:20.325Z,9.19
2024-02-06T04:40:51.734Z,9.20
2024-02-06T04:43:23.744Z,9.20
2024-02-06T04:45:54.881Z,9.20
2024-02-06T04:48:26.046Z,9.23
2024-02-06T04:50:57.209Z,9.24
2024-02-06T04:53:28.127Z,9.26
2024-02-06T04:55:59.043Z,9.27
2024-02-06T04:58:29.899Z,9.31
2024-02-06T05:01:01.240Z,9.35
2024-02-06T05:03:32.275Z,9.37
2024-02-06T05:06:03.289Z,9.39
2024-02-06T05:08:34.228Z,9.42
2024-02-06T05:11:06.230Z,9.46
2024-02-06T05:13:37.269Z,9.48
2024-02-06T05:16:08.895Z,9.49
2024-02-06T05:18:40.059Z,9.52
2024-02-06T05:21:11.012Z,9.54
2024-02-06T05:23:41.981Z,9.57
2024-02-06T05:26:13.829Z,9.60
2024-02-06T05:28:44.822Z,9.63
2024-02-06T05:31:15.936Z,9.65
2024-02-06T05:33:46.875Z,9.65
2024-02-06T05:36:17.880Z,9.63
2024-02-06T05:38:48.828Z,9.61
2024-02-06T05:41:19.951Z,9.59
2024-02-06T05:43:50.997Z,9.61
2024-02-06T05:46:21.995Z,9.62
2024-02-06T05:48:53.125Z,9.63
2024-02-06T05:51:23.952Z,9.64
2024-02-06T05:53:54.894Z,9.65
2024-02-06T05:56:25.683Z,9.65
2024-02-06T05:58:56.510Z,9.70
2024-02-06T06:01:27.567Z,9.72
2024-02-06T06:03:59.053Z,9.72
2024-02-06T06:06:30.151Z,9.71
2024-02-06T06:09:01.508Z,9.70
2024-02-06T06:11:32.388Z,9.68
2024-02-06T06:14:03.257Z,9.68
2024-02-06T06:16:34.308Z,9.66
2024-02-06T06:19:05.668Z,9.64
2024-02-06T06:21:37.161Z,9.62
2024-02-06T06:24:09.946Z,9.59
2024-02-06T06:26:42.383Z,9.58
2024-02-06T06:29:13.181Z,9.59
2024-02-06T06:31:44.046Z,9.60
2024-02-06T06:34:15.174Z,9.58
2024-02-06T06:36:46.207Z,9.58
2024-02-06T06:39:18.918Z,9.59
2024-02-06T06:41:49.872Z,9.59
2024-02-06T06:44:20.858Z,9.62
2024-02-06T06:46:51.874Z,9.64
2024-02-06T06:49:23.532Z,9.66
2024-02-06T06:51:54.694Z,9.69
2024-02-06T06:54:25.719Z,9.72
2024-02-06T06:56:56.795Z,9.76
2024-02-06T06:59:27.689Z,9.81
2024-02-06T07:02:00.054Z,9.86
2024-02-06T07:04:31.157Z,9.90
2024-02-06T07:07:02.128Z,9.94
2024-02-06T07:09:33.022Z,9.99
2024-02-06T07:12:04.029Z,10.04
2024-02-06T07:14:36.522Z,10.12
2024-02-06T07:17:07.914Z,10.18
2024-02-06T07:19:38.945Z,10.26
2024-02-06T07:22:09.950Z,10.34
2024-02-06T07:24:40.872Z,10.42
2024-02-06T07:27:11.970Z,10.50
2024-02-06T07:29:42.988Z,10.58
2024-02-06T07:32:13.988Z,10.66
2024-02-06T07:34:44.884Z,10.72
2024-02-06T07:37:16.646Z,10.79
2024-02-06T07:39:47.570Z,10.87
2024-02-06T07:42:18.578Z,10.92
2024-02-06T07:44:49.453Z,10.97
2024-02-06T07:47:20.393Z,11.02
2024-02-06T07:49:51.466Z,11.05
2024-02-06T07:52:22.452Z,11.12
2024-02-06T07:54:54.339Z,11.18
2024-02-06T07:57:25.208Z,11.24
2024-02-06T07:59:56.089Z,11.31
2024-02-06T08:02:27.139Z,11.39
2024-02-06T08:04:58.187Z,11.47
2024-02-06T08:07:30.272Z,11.53
2024-02-06T08:10:01.492Z,11.59
2024-02-06T08:12:34.061Z,11.67
2024-02-06T08:15:05.508Z,11.75
2024-02-06T08:17:37.630Z,11.83
2024-02-06T08:20:12.651Z,11.91
2024-02-06T08:22:45.198Z,11.99
2024-02-06T08:25:19.276Z,12.07
2024-02-06T08:27:50.389Z,12.15
2024-02-06T08:30:21.394Z,12.25
2024-02-06T08:32:52.755Z,12.33
2024-02-06T08:35:23.901Z,12.45
2024-02-06T08:37:55.151Z,12.57
2024-02-06T08:40:26.192Z,12.70
2024-02-06T08:42:57.956Z,12.81
2024-02-06T08:45:29.335Z,12.93
2024-02-06T08:48:00.323Z,13.04
2024-02-06T08:50:34.667Z,13.16
2024-02-06T08:53:06.569Z,13.28
2024-02-06T08:55:37.474Z,13.37
2024-02-06T08:58:08.351Z,13.46
2024-02-06T09:00:39.334Z,13.55
2024-02-06T09:03:10.186Z,13.65
2024-02-06T09:05:41.789Z,13.76
2024-02-06T09:08:13.355Z,13.86
2024-02-06T09:10:44.325Z,13.95
2024-02-06T09:13:15.414Z,14.08
2024-02-06T09:15:46.323Z,14.21
2024-02-06T09:18:17.527Z,14.34
2024-02-06T09:20:48.675Z,14.46
2024-02-06T09:23:19.900Z,14.56
2024-02-06T09:25:50.960Z,14.68
2024-02-06T09:28:21.883Z,14.78
2024-02-06T09:30:52.765Z,14.90
2024-02-06T09:33:23.848Z,15.01
2024-02-06T09:35:54.876Z,15.13
2024-02-06T09:38:25.748Z,15.25
2024-02-06T09:40:57.478Z,15.36
2024-02-06T09:43:28.825Z,15.49
2024-02-06T09:45:59.695Z,15.62
2024-02-06T09:48:30.629Z,15.75
2024-02-06T09:51:02.100Z,15.89
2024-02-06T09:53:33.044Z,16.04
2024-02-06T09:56:04.041Z,16.19
2024-02-06T09:58:35.155Z,16.34
2024-02-06T10:01:11.607Z,16.50
2024-02-06T10:03:42.829Z,16.68
2024-02-06T10:06:14.304Z,16.87
2024-02-06T10:08:45.086Z,17.06
2024-02-06T10:11:16.091Z,17.25
2024-02-06T10:13:47.177Z,17.44
2024-02-06T10:16:19.996Z,17.64
2024-02-06T10:18:54.757Z,17.88
2024-02-06T10:21:28.793Z,18.14
2024-02-06T10:24:03.747Z,18.42
2024-02-06T10:26:35.249Z,18.67
2024-02-06T10:29:10.375Z,18.86
2024-02-06T10:31:42.012Z,18.98
2024-02-06T10:34:14.159Z,19.08
2024-02-06T10:36:45.329Z,19.19
2024-02-06T10:39:16.313Z,19.29
2024-02-06T10:42:09.326Z,19.43
2024-02-06T10:44:38.263Z,19.60
2024-02-06T10:47:09.415Z,19.67
2024-02-06T10:49:40.496Z,19.74
2024-02-06T10:52:12.910Z,19.74
2024-02-06T10:54:43.830Z,19.79
2024-02-06T10:57:14.615Z,19.92
2024-02-06T10:59:48.360Z,20.12
2024-02-06T11:02:23.491Z,20.20
2024-02-06T11:04:56.404Z,20.24
2024-02-06T11:07:27.243Z,20.27
2024-02-06T11:09:58.141Z,20.25
2024-02-06T11:12:36.743Z,20.26
2024-02-06T11:15:10.708Z,20.19
2024-02-06T11:17:41.833Z,20.12
2024-02-06T11:20:15.532Z,20.15
2024-02-06T11:22:47.325Z,20.17
2024-02-06T11:25:18.590Z,20.19
2024-02-06T11:27:50.788Z,20.17
2024-02-06T11:30:23.091Z,20.18
2024-02-06T11:33:05.661Z,20.17
2024-02-06T11:35:36.846Z,20.17
2024-02-06T11:38:07.912Z,20.13
2024-02-06T11:40:38.859Z,20.12
2024-02-06T11:43:10.213Z,20.20
2024-02-06T11:45:43.703Z,20.31
2024-02-06T11:48:15.143Z,20.49
2024-02-06T11:50:46.422Z,20.69
2024-02-06T11:53:18.942Z,20.95
2024-02-06T11:55:50.016Z,21.19
2024-02-06T11:58:21.416Z,21.37
2024-02-06T12:00:53.253Z,21.50
2024-02-06T12:03:24.357Z,21.68
2024-02-06T12:05:55.340Z,21.87
2024-02-06T12:08:30.230Z,22.06
2024-02-06T12:11:05.466Z,22.21
2024-02-06T12:13:36.632Z,22.24
2024-02-06T12:16:09.039Z,22.31
2024-02-06T12:18:40.090Z,22.36
2024-02-06T12:21:10.941Z,22.35
2024-02-06T12:23:41.817Z,22.35
2024-02-06T12:26:12.774Z,22.35
2024-02-06T12:28:43.738Z,22.43
2024-02-06T12:31:15.017Z,22.49
2024-02-06T12:33:46.379Z,22.58
2024-02-06T12:36:17.609Z,22.63
2024-02-06T12:38:48.508Z,22.68
2024-02-06T12:41:19.349Z,22.55
2024-02-06T12:43:53.747Z,22.54
2024-02-06T12:46:24.722Z,22.54
2024-02-06T12:48:55.747Z,22.59
2024-02-06T12:51:26.809Z,22.65
2024-02-06T12:53:57.755Z,22.68
2024-02-06T12:56:28.845Z,22.66
2024-02-06T12:59:02.033Z,22.79
2024-02-06T13:01:35.021Z,22.94
2024-02-06T13:04:06.925Z,22.97
2024-02-06T13:06:40.940Z,22.86
2024-02-06T13:09:12.031Z,22.79
2024-02-06T13:11:42.831Z,22.71
2024-02-06T13:14:13.755Z,22.71
2024-02-06T13:16:44.740Z,22.61
2024-02-06T13:19:23.802Z,22.53
2024-02-06T13:21:55.333Z,22.45
2024-02-06T13:24:26.161Z,22.34
2024-02-06T13:26:57.048Z,22.35
2024-02-06T13:29:35.791Z,22.25
2024-02-06T13:32:07.443Z,22.16
2024-02-06T13:34:38.640Z,22.25
2024-02-06T13:37:09.658Z,22.34
2024-02-06T13:39:40.638Z,22.51
2024-02-06T13:42:11.421Z,22.57
2024-02-06T13:44:42.285Z,22.48
2024-02-06T13:47:13.119Z,22.47
2024-02-06T13:49:44.047Z,22.49
2024-02-06T13:52:15.123Z,22.44
2024-02-06T13:54:46.973Z,22.46
2024-02-06T13:57:20.007Z,22.48
2024-02-06T13:59:50.805Z,22.50
2024-02-06T14:02:21.719Z,22.43
2024-02-06T14:04:52.589Z,22.22
2024-02-06T14:07:24.908Z,22.06
2024-02-06T14:09:56.096Z,21.94
2024-02-06T14:12:32.447Z,21.84
2024-02-06T14:15:11.875Z,21.73
2024-02-06T14:17:43.853Z,21.61
2024-02-06T14:20:16.416Z,21.50
2024-02-06T14:22:48.652Z,21.40
2024-02-06T14:25:20.123Z,21.31
2024-02-06T14:27:51.161Z,21.22
2024-02-06T14:30:22.403Z,21.14
2024-02-06T14:32:53.361Z,21.09
2024-02-06T14:35:27.465Z,21.03
2024-02-06T14:37:58.612Z,20.95
2024-02-06T14:40:30.193Z,20.88
2024-02-06T14:43:01.300Z,20.82
2024-02-06T14:45:32.714Z,20.79
2024-02-06T14:48:05.186Z,20.74
2024-02-06T14:50:35.965Z,20.68
2024-02-06T14:53:07.011Z,20.63
2024-02-06T14:55:37.931Z,20.58
2024-02-06T14:58:08.838Z,20.52
2024-02-06T15:00:39.698Z,20.47
2024-02-06T15:03:10.573Z,20.42
2024-02-06T15:05:41.541Z,20.37
2024-02-06T15:08:12.476Z,20.31
2024-02-06T15:10:43.415Z,20.23
2024-02-06T15:13:14.328Z,20.15
2024-02-06T15:15:45.288Z,20.07
2024-02-06T15:18:16.236Z,19.99
2024-02-06T15:20:47.977Z,19.91
2024-02-06T15:23:19.125Z,19.85
2024-02-06T15:25:49.956Z,19.83
2024-02-06T15:28:20.897Z,19.79
2024-02-06T15:30:51.780Z,19.70
2024-02-06T15:33:22.699Z,19.62
2024-02-06T15:35:53.830Z,19.57
2024-02-06T15:38:24.633Z,19.52
2024-02-06T15:40:55.510Z,19.47
2024-02-06T15:43:26.498Z,19.37
2024-02-06T15:45:57.475Z,19.32
2024-02-06T15:48:28.387Z,19.26
2024-02-06T15:50:59.321Z,19.18
2024-02-06T15:53:30.276Z,19.08
2024-02-06T15:56:02.606Z,18.97
2024-02-06T15:58:33.578Z,18.91
2024-02-06T16:01:04.562Z,18.86
2024-02-06T16:03:36.231Z,18.81
2024-02-06T16:06:07.563Z,18.73
2024-02-06T16:08:38.514Z,18.70
2024-02-06T16:11:09.985Z,18.66
2024-02-06T16:13:41.395Z,18.60
2024-02-06T16:16:13.293Z,18.53
2024-02-06T16:18:44.280Z,18.48
2024-02-06T16:21:15.116Z,18.43
2024-02-06T16:23:47.211Z,18.40
2024-02-06T16:26:18.247Z,18.34
2024-02-06T16:28:49.350Z,18.30
2024-02-06T16:31:22.206Z,18.26
2024-02-06T16:33:54.271Z,18.23
2024-02-06T16:36:25.450Z,18.20
2024-02-06T16:38:59.875Z,18.12
2024-02-06T16:41:34.861Z,18.01
2024-02-06T16:44:05.875Z,17.91
2024-02-06T16:46:36.749Z,17.83
2024-02-06T16:49:09.195Z,17.77
2024-02-06T16:51:40.205Z,17.74
2024-02-06T16:54:11.752Z,17.61
2024-02-06T16:56:42.628Z,17.46
2024-02-06T16:59:13.514Z,17.37
2024-02-06T17:01:45.899Z,17.29
2024-02-06T17:04:16.928Z,17.22
2024-02-06T17:06:47.857Z,17.21
2024-02-06T17:09:19.358Z,17.20
2024-02-06T17:11:50.278Z,17.19
2024-02-06T17:14:21.189Z,17.14
2024-02-06T17:16:53.051Z,17.05
2024-02-06T17:19:23.982Z,16.97
2024-02-06T17:21:54.929Z,16.90
2024-02-06T17:24:25.794Z,16.83
2024-02-06T17:26:57.830Z,16.76
2024-02-06T17:29:28.695Z,16.71
2024-02-06T17:31:59.547Z,16.66
2024-02-06T17:34:30.678Z,16.62
2024-02-06T17:37:01.668Z,16.59
2024-02-06T17:39:34.224Z,16.54
2024-02-06T17:42:06.241Z,16.48
2024-02-06T17:44:37.158Z,16.42
2024-02-06T17:47:08.102Z,16.39
2024-02-06T17:49:39.057Z,16.38
2024-02-06T17:52:09.989Z,16.38
2024-02-06T17:54:40.861Z,16.40
2024-02-06T17:57:16.419Z,16.39
2024-02-06T17:59:47.442Z,16.39
2024-02-06T18:02:18.417Z,16.38
2024-02-06T18:04:53.494Z,16.37
2024-02-06T18:07:26.593Z,16.35
2024-02-06T18:09:57.562Z,16.26
2024-02-06T18:12:28.235Z,16.18
2024-02-06T18:14:58.998Z,16.14
2024-02-06T18:17:30.143Z,16.13
2024-02-06T18:20:01.106Z,16.11
2024-02-06T18:22:33.169Z,16.08
2024-02-06T18:25:05.789Z,16.08
2024-02-06T18:27:36.763Z,16.07
2024-02-06T18:30:09.195Z,16.07
2024-02-06T18:32:40.174Z,16.04
2024-02-06T18:35:11.588Z,16.02
2024-02-06T18:37:42.711Z,16.02
2024-02-06T18:40:14.588Z,16.02
2024-02-06T18:42:45.579Z,16.02
2024-02-06T18:45:16.567Z,16.02
2024-02-06T18:47:48.444Z,16.02
2024-02-06T18:50:19.867Z,16.00
2024-02-06T18:52:50.886Z,15.97
2024-02-06T18:55:21.793Z,15.94
2024-02-06T18:57:52.673Z,15.89
2024-02-06T19:00:23.972Z,15.86
2024-02-06T19:02:54.959Z,15.82
2024-02-06T19:05:26.063Z,15.78
2024-02-06T19:07:57.160Z,15.75
2024-02-06T19:10:28.165Z,15.70
2024-02-06T19:12:59.321Z,15.65
2024-02-06T19:15:30.212Z,15.58
2024-02-06T19:18:01.108Z,15.49
2024-02-06T19:20:32.157Z,15.41
2024-02-06T19:23:02.983Z,15.38
2024-02-06T19:25:34.318Z,15.34
2024-02-06T19:28:05.443Z,15.31
2024-02-06T19:30:38.967Z,15.27
2024-02-06T19:33:11.156Z,15.23
2024-02-06T19:35:42.036Z,15.19
2024-02-06T19:38:18.139Z,15.09
2024-02-06T19:40:49.399Z,15.03
2024-02-06T19:43:20.324Z,15.02
2024-02-06T19:45:52.091Z,14.97
2024-02-06T19:48:26.284Z,14.95
2024-02-06T19:50:57.840Z,14.93
2024-02-06T19:53:28.905Z,14.90
2024-02-06T19:55:59.780Z,14.87
2024-02-06T19:58:30.743Z,14.84
2024-02-06T20:01:01.555Z,14.78
2024-02-06T20:03:32.323Z,14.73
2024-02-06T20:06:03.533Z,14.73
2024-02-06T20:08:34.756Z,14.71
2024-02-06T20:11:06.137Z,14.66
2024-02-06T20:13:36.983Z,14.62
2024-02-06T20:16:08.585Z,14.59
2024-02-06T20:18:39.578Z,14.55
2024-02-06T20:21:10.461Z,14.50
2024-02-06T20:23:41.540Z,14.43
2024-02-06T20:26:12.435Z,14.33
2024-02-06T20:28:43.328Z,14.24
2024-02-06T20:31:14.352Z,14.16
2024-02-06T20:33:45.608Z,14.11
2024-02-06T20:36:16.886Z,14.03
2024-02-06T20:38:47.768Z,13.97
2024-02-06T20:41:19.374Z,13.90
2024-02-06T20:43:51.223Z,13.88
2024-02-06T20:46:22.304Z,13.87
2024-02-06T20:48:53.264Z,13.83
2024-02-06T20:51:24.308Z,13.78
2024-02-06T20:53:55.264Z,13.73
2024-02-06T20:56:26.235Z,13.69
2024-02-06T20:58:57.151Z,13.63
2024-02-06T21:01:28.209Z,13.60
2024-02-06T21:03:59.168Z,13.54
2024-02-06T21:06:30.220Z,13.51
2024-02-06T21:09:01.097Z,13.47
2024-02-06T21:11:32.697Z,13.43
2024-02-06T21:14:03.622Z,13.40
2024-02-06T21:16:34.676Z,13.33
2024-02-06T21:19:05.576Z,13.30
2024-02-06T21:21:36.609Z,13.26
2024-02-06T21:24:07.965Z,13.17
2024-02-06T21:26:38.840Z,13.13
2024-02-06T21:29:09.760Z,13.12
2024-02-06T21:31:42.651Z,13.07
2024-02-06T21:34:13.781Z,13.01
2024-02-06T21:36:44.722Z,12.95
2024-02-06T21:39:18.601Z,12.92
2024-02-06T21:41:49.434Z,12.90
2024-02-06T21:44:21.519Z,12.84
2024-02-06T21:46:53.002Z,12.79
2024-02-06T21:49:24.201Z,12.76
2024-02-06T21:51:55.136Z,12.74
2024-02-06T21:54:26.044Z,12.69
2024-02-06T21:56:56.994Z,12.66
2024-02-06T21:59:27.864Z,12.66
2024-02-06T22:01:58.703Z,12.66
2024-02-06T22:04:30.356Z,12.57
2024-02-06T22:07:01.428Z,12.45
2024-02-06T22:09:32.766Z,12.35
2024-02-06T22:12:04.512Z,12.32
2024-02-06T22:14:35.420Z,12.30
2024-02-06T22:17:06.399Z,12.28
2024-02-06T22:19:37.619Z,12.19
2024-02-06T22:22:08.749Z,12.11
2024-02-06T22:24:44.109Z,12.05
2024-02-06T22:27:15.887Z,12.02
2024-02-06T22:29:46.830Z,12.00
2024-02-06T22:32:17.864Z,11.90
2024-02-06T22:34:48.705Z,11.78
2024-02-06T22:37:19.698Z,11.72
2024-02-06T22:39:50.647Z,11.72
2024-02-06T22:42:21.537Z,11.73
2024-02-06T22:44:52.408Z,11.75
2024-02-06T22:47:23.726Z,11.78
2024-02-06T22:49:55.153Z,11.78
2024-02-06T22:52:26.221Z,11.78
2024-02-06T22:54:57.076Z,11.78
2024-02-06T22:57:27.952Z,11.78
2024-02-06T22:59:58.825Z,11.75
2024-02-06T23:02:29.659Z,11.71
2024-02-06T23:05:00.789Z,11.62
2024-02-06T23:07:32.162Z,11.53
2024-02-06T23:10:03.103Z,11.42
2024-02-06T23:12:34.781Z,11.26
2024-02-06T23:15:06.191Z,11.15
2024-02-06T23:17:37.496Z,11.05
2024-02-06T23:20:09.991Z,11.04
2024-02-06T23:22:40.947Z,11.02
2024-02-06T23:25:11.947Z,10.97
2024-02-06T23:27:42.954Z,10.93
2024-02-06T23:30:14.795Z,10.90
2024-02-06T23:32:46.148Z,10.78
2024-02-06T23:35:17.064Z,10.74
2024-02-06T23:37:47.992Z,10.75
2024-02-06T23:40:19.304Z,10.67
2024-02-06T23:42:50.385Z,10.67
2024-02-06T23:45:21.264Z,10.66
2024-02-06T23:47:52.671Z,10.62
2024-02-06T23:50:23.649Z,10.63
2024-02-06T23:52:54.668Z,10.64
2024-02-06T23:55:25.682Z,10.67
2024-02-06T23:57:56.636Z,10.66
